createdAt,value
2022-10-28T00:01:57.588Z,1.58
2022-10-28T00:06:59.465Z,1.20
2022-10-28T00:11:58.942Z,1.42
2022-10-28T00:14:29.526Z,1.45
2022-10-28T00:16:59.570Z,1.55
2022-10-28T00:19:29.471Z,1.42
2022-10-28T00:21:59.890Z,1.70
2022-10-28T00:24:29.970Z,1.70
2022-10-28T00:27:00.324Z,1.58
2022-10-28T00:29:30.340Z,2.10
2022-10-28T00:32:00.750Z,1.95
2022-10-28T00:34:30.842Z,1.80
2022-10-28T00:37:01.298Z,2.08
2022-10-28T00:39:31.956Z,1.80
2022-10-28T00:42:05.780Z,1.80
2022-10-28T00:44:59.767Z,1.90
2022-10-28T00:47:45.754Z,1.52
2022-10-28T00:50:22.239Z,1.60
2022-10-28T00:53:03.271Z,1.50
2022-10-28T00:55:34.611Z,1.83
2022-10-28T00:58:07.717Z,1.40
2022-10-28T01:00:39.319Z,1.65
2022-10-28T01:03:10.868Z,1.42
2022-10-28T01:05:44.565Z,1.50
2022-10-28T01:08:15.392Z,1.65
2022-10-28T01:11:12.185Z,2.50
2022-10-28T01:14:12.779Z,1.85
2022-10-28T01:17:04.337Z,1.90
2022-10-28T01:20:05.628Z,1.92
2022-10-28T01:23:03.015Z,1.73
2022-10-28T01:25:50.986Z,2.30
2022-10-28T01:28:34.078Z,2.00
2022-10-28T01:31:21.936Z,1.92
2022-10-28T01:34:10.368Z,2.00
2022-10-28T01:36:54.464Z,3.70
2022-10-28T01:39:45.775Z,2.50
2022-10-28T01:45:12.643Z,3.60
2022-10-28T01:48:04.256Z,3.95
2022-10-28T01:50:54.750Z,3.70
2022-10-28T01:53:30.134Z,3.35
2022-10-28T01:56:04.429Z,2.45
2022-10-28T01:58:36.875Z,2.40
2022-10-28T02:01:10.882Z,2.67
2022-10-28T02:03:41.155Z,2.45
2022-10-28T02:06:19.986Z,4.50
2022-10-28T02:09:04.814Z,3.72
2022-10-28T02:12:12.445Z,3.45
2022-10-28T02:15:03.497Z,3.22
2022-10-28T02:18:04.131Z,2.78
2022-10-28T02:20:56.918Z,2.63
2022-10-28T02:23:44.662Z,3.20
2022-10-28T02:26:39.675Z,2.97
2022-10-28T02:29:32.635Z,3.10
2022-10-28T02:32:13.720Z,2.67
2022-10-28T02:34:47.445Z,2.70
2022-10-28T02:37:28.290Z,2.75
2022-10-28T02:40:09.399Z,2.92
2022-10-28T02:42:45.535Z,2.80
2022-10-28T02:45:38.975Z,2.80
2022-10-28T02:48:20.656Z,2.60
2022-10-28T02:50:59.451Z,3.15
2022-10-28T02:53:34.416Z,2.78
2022-10-28T02:56:09.033Z,2.63
2022-10-28T02:58:42.998Z,2.38
2022-10-28T03:01:13.620Z,2.58
2022-10-28T03:03:43.978Z,2.53
2022-10-28T03:06:17.575Z,2.47
2022-10-28T03:08:47.718Z,2.42
2022-10-28T03:13:47.885Z,2.35
2022-10-28T03:16:18.307Z,2.00
2022-10-28T03:18:48.327Z,2.40
2022-10-28T03:23:48.128Z,2.45
2022-10-28T03:26:18.291Z,2.40
2022-10-28T03:28:49.083Z,2.22
2022-10-28T03:31:19.298Z,2.55
2022-10-28T03:33:49.946Z,2.35
2022-10-28T03:36:19.911Z,2.35
2022-10-28T03:41:20.474Z,2.30
2022-10-28T03:43:50.247Z,2.72
2022-10-28T03:48:51.163Z,4.10
2022-10-28T03:51:21.579Z,4.50
2022-10-28T03:53:51.360Z,3.58
2022-10-28T03:56:23.767Z,4.15
2022-10-28T04:01:28.943Z,2.75
2022-10-28T04:03:59.056Z,3.25
2022-10-28T04:08:59.361Z,3.17
2022-10-28T04:14:00.032Z,3.03
2022-10-28T04:16:30.472Z,3.97
2022-10-28T04:19:00.610Z,3.50
2022-10-28T04:21:31.062Z,3.40
2022-10-28T04:24:01.397Z,3.42
2022-10-28T04:26:32.924Z,4.93
2022-10-28T04:29:02.931Z,4.28
2022-10-28T04:34:02.825Z,4.85
2022-10-28T04:36:32.757Z,4.30
2022-10-28T04:39:03.130Z,4.07
2022-10-28T04:41:33.410Z,4.10
2022-10-28T04:44:03.800Z,3.97
2022-10-28T04:46:33.995Z,3.70
2022-10-28T04:49:04.345Z,3.95
2022-10-28T04:51:34.321Z,4.65
2022-10-28T04:54:04.879Z,5.13
2022-10-28T04:56:34.799Z,4.20
2022-10-28T04:59:05.232Z,4.65
2022-10-28T05:01:35.296Z,4.40
2022-10-28T05:06:35.042Z,4.50
2022-10-28T05:09:05.226Z,4.93
2022-10-28T05:14:05.312Z,4.65
2022-10-28T05:16:35.724Z,5.00
2022-10-28T05:19:05.884Z,4.60
2022-10-28T05:21:36.266Z,5.30
2022-10-28T05:24:06.821Z,6.25
2022-10-28T05:26:37.196Z,6.03
2022-10-28T05:29:07.279Z,6.60
2022-10-28T05:34:09.655Z,5.80
2022-10-28T05:36:40.225Z,4.88
2022-10-28T05:39:10.354Z,4.72
2022-10-28T05:44:09.881Z,4.35
2022-10-28T05:46:39.872Z,4.65
2022-10-28T05:49:12.153Z,4.70
2022-10-28T05:51:42.096Z,4.63
2022-10-28T05:54:12.609Z,4.97
2022-10-28T05:56:42.402Z,5.22
2022-10-28T05:59:12.778Z,5.15
2022-10-28T06:01:42.859Z,5.15
2022-10-28T06:04:13.481Z,4.57
2022-10-28T06:06:43.588Z,6.07
2022-10-28T06:09:13.583Z,5.65
2022-10-28T06:11:42.691Z,8.68
2022-10-28T06:14:12.597Z,8.23
2022-10-28T06:16:43.564Z,6.57
2022-10-28T06:19:13.580Z,6.32
2022-10-28T06:21:44.163Z,6.70
2022-10-28T06:24:14.386Z,6.03
2022-10-28T06:29:18.919Z,4.70
2022-10-28T06:31:49.398Z,5.15
2022-10-28T06:34:21.484Z,5.30
2022-10-28T06:36:52.092Z,5.43
2022-10-28T06:39:21.923Z,4.38
2022-10-28T06:41:52.546Z,4.68
2022-10-28T06:44:22.489Z,4.82
2022-10-28T06:49:23.851Z,4.65
2022-10-28T06:51:53.864Z,4.35
2022-10-28T06:54:24.233Z,3.70
2022-10-28T06:56:56.977Z,5.13
2022-10-28T06:59:27.417Z,5.72
2022-10-28T07:01:57.517Z,5.65
2022-10-28T07:07:00.237Z,5.50
2022-10-28T07:09:31.335Z,6.82
2022-10-28T07:14:36.012Z,5.45
2022-10-28T07:17:06.860Z,4.68
2022-10-28T07:19:37.196Z,3.92
2022-10-28T07:22:07.586Z,3.95
2022-10-28T07:24:37.933Z,4.30
2022-10-28T07:27:07.959Z,4.07
2022-10-28T07:29:38.355Z,4.78
2022-10-28T07:32:08.617Z,4.10
2022-10-28T07:34:41.806Z,3.78
2022-10-28T07:37:14.075Z,3.97
2022-10-28T07:39:44.513Z,4.80
2022-10-28T07:42:14.317Z,5.68
2022-10-28T07:44:44.788Z,7.50
2022-10-28T07:47:14.828Z,6.28
2022-10-28T07:49:45.615Z,6.55
2022-10-28T07:52:15.632Z,7.35
2022-10-28T07:54:45.424Z,7.65
2022-10-28T07:57:15.799Z,6.93
2022-10-28T07:59:46.246Z,5.30
2022-10-28T08:02:25.412Z,5.57
2022-10-28T08:04:57.947Z,5.97
2022-10-28T08:07:28.386Z,5.65
2022-10-28T08:09:58.309Z,6.22
2022-10-28T08:12:29.666Z,5.07
2022-10-28T08:14:59.647Z,5.25
2022-10-28T08:17:29.636Z,4.95
2022-10-28T08:19:59.998Z,5.88
2022-10-28T08:22:30.059Z,5.40
2022-10-28T08:25:00.423Z,5.40
2022-10-28T08:27:30.374Z,7.82
2022-10-28T08:30:00.829Z,5.38
2022-10-28T08:32:30.793Z,6.13
2022-10-28T08:35:01.225Z,6.90
2022-10-28T08:37:31.374Z,6.88
2022-10-28T08:42:42.827Z,5.93
2022-10-28T08:45:49.061Z,5.38
2022-10-28T08:48:37.775Z,5.93
2022-10-28T08:51:17.701Z,4.60
2022-10-28T08:54:01.917Z,4.93
2022-10-28T08:56:50.366Z,5.57
2022-10-28T08:59:42.120Z,3.97
2022-10-28T09:02:24.086Z,4.53
2022-10-28T09:04:58.645Z,5.72
2022-10-28T09:07:32.328Z,5.35
2022-10-28T09:10:02.311Z,4.35
2022-10-28T09:12:38.588Z,4.05
2022-10-28T09:15:27.900Z,4.60
2022-10-28T09:18:19.710Z,3.60
2022-10-28T09:21:04.449Z,3.05
2022-10-28T09:23:38.892Z,3.20
2022-10-28T09:26:21.954Z,3.42
2022-10-28T09:28:57.492Z,3.17
2022-10-28T09:31:33.545Z,3.08
2022-10-28T09:34:20.309Z,3.00
2022-10-28T09:36:56.489Z,3.38
2022-10-28T09:39:36.459Z,3.40
2022-10-28T09:42:07.261Z,2.80
2022-10-28T09:44:47.038Z,3.75
2022-10-28T09:47:39.930Z,3.38
2022-10-28T09:50:23.188Z,3.53
2022-10-28T09:53:04.924Z,2.53
2022-10-28T09:55:35.417Z,2.47
2022-10-28T09:58:06.720Z,2.17
2022-10-28T10:00:37.052Z,1.85
2022-10-28T10:03:07.351Z,2.15
2022-10-28T10:05:43.988Z,2.40
2022-10-28T10:08:20.141Z,2.15
2022-10-28T10:11:02.189Z,2.40
2022-10-28T10:13:42.742Z,2.10
2022-10-28T10:16:38.637Z,2.75
2022-10-28T10:19:12.294Z,2.30
2022-10-28T10:21:48.763Z,3.08
2022-10-28T10:24:24.570Z,2.60
2022-10-28T10:26:55.795Z,3.05
2022-10-28T10:29:27.129Z,3.03
2022-10-28T10:32:07.839Z,2.92
2022-10-28T10:34:38.362Z,2.70
2022-10-28T10:37:24.075Z,3.45
2022-10-28T10:40:26.688Z,3.00
2022-10-28T10:43:12.951Z,2.72
2022-10-28T10:45:51.976Z,2.80
2022-10-28T10:48:22.824Z,2.70
2022-10-28T10:50:53.934Z,2.67
2022-10-28T10:53:30.113Z,2.75
2022-10-28T10:56:04.551Z,2.70
2022-10-28T10:58:39.173Z,2.53
2022-10-28T11:01:10.719Z,2.92
2022-10-28T11:03:49.606Z,2.72
2022-10-28T11:06:29.838Z,2.90
2022-10-28T11:09:03.694Z,2.65
2022-10-28T11:11:42.843Z,2.42
2022-10-28T11:14:16.081Z,2.83
2022-10-28T11:16:52.050Z,2.15
2022-10-28T11:19:36.637Z,2.10
2022-10-28T11:22:21.286Z,2.20
2022-10-28T11:25:16.381Z,2.20
2022-10-28T11:27:57.534Z,2.50
2022-10-28T11:30:44.117Z,2.65
2022-10-28T11:33:29.989Z,2.33
2022-10-28T11:36:09.574Z,2.40
2022-10-28T11:38:50.664Z,2.25
2022-10-28T11:41:41.684Z,2.60
2022-10-28T11:44:37.368Z,2.60
2022-10-28T11:47:26.225Z,2.33
2022-10-28T11:50:19.922Z,2.80
2022-10-28T11:53:20.018Z,2.58
2022-10-28T11:55:55.810Z,2.50
2022-10-28T11:59:01.417Z,2.55
2022-10-28T12:01:35.969Z,2.55
2022-10-28T12:04:43.307Z,3.20
2022-10-28T12:07:31.348Z,2.85
2022-10-28T12:10:12.195Z,2.88
2022-10-28T12:13:08.002Z,2.42
2022-10-28T12:16:30.335Z,2.40
2022-10-28T12:19:10.492Z,2.40
2022-10-28T12:21:47.467Z,2.20
2022-10-28T12:24:21.849Z,2.55
2022-10-28T12:27:07.681Z,2.40
2022-10-28T12:29:50.072Z,2.35
2022-10-28T12:35:14.835Z,1.90
2022-10-28T12:38:09.365Z,2.00
2022-10-28T12:40:50.782Z,2.40
2022-10-28T12:43:39.545Z,2.03
2022-10-28T12:46:28.029Z,1.90
2022-10-28T12:49:04.752Z,1.98
2022-10-28T12:51:41.587Z,2.00
2022-10-28T12:54:24.421Z,1.95
2022-10-28T12:57:15.576Z,2.10
2022-10-28T12:59:57.249Z,1.90
2022-10-28T13:02:40.983Z,1.92
2022-10-28T13:05:23.437Z,2.08
2022-10-28T13:08:11.758Z,2.13
2022-10-28T13:10:57.098Z,1.98
2022-10-28T13:13:45.209Z,2.00
2022-10-28T13:16:22.137Z,1.80
2022-10-28T13:19:19.368Z,1.90
2022-10-28T13:22:07.957Z,2.08
2022-10-28T13:25:03.024Z,1.92
2022-10-28T13:27:33.691Z,1.85
2022-10-28T13:30:04.753Z,2.17
2022-10-28T13:32:41.159Z,1.70
2022-10-28T13:35:25.335Z,1.80
2022-10-28T13:37:57.775Z,1.63
2022-10-28T13:40:34.882Z,1.83
2022-10-28T13:43:05.414Z,1.90
2022-10-28T13:45:57.776Z,1.52
2022-10-28T13:48:31.477Z,1.92
2022-10-28T13:51:13.538Z,1.65
2022-10-28T13:53:51.850Z,1.63
2022-10-28T13:56:46.995Z,1.92
2022-10-28T13:59:20.360Z,1.90
2022-10-28T14:02:02.051Z,1.80
2022-10-28T14:04:40.716Z,1.77
2022-10-28T14:07:13.824Z,1.80
2022-10-28T14:09:44.851Z,1.70
2022-10-28T14:12:20.268Z,1.52
2022-10-28T14:15:08.666Z,1.50
2022-10-28T14:17:44.001Z,1.50
2022-10-28T14:22:55.500Z,1.45
2022-10-28T14:25:46.910Z,1.35
2022-10-28T14:28:32.057Z,0.98
2022-10-28T14:31:12.610Z,1.25
2022-10-28T14:33:45.375Z,1.10
2022-10-28T14:36:21.802Z,1.27
2022-10-28T14:39:28.142Z,1.10
2022-10-28T14:42:21.892Z,1.08
2022-10-28T14:45:22.190Z,1.38
2022-10-28T14:48:23.509Z,1.38
2022-10-28T14:50:56.386Z,1.20
2022-10-28T14:53:35.020Z,0.70
2022-10-28T14:56:07.224Z,0.85
2022-10-28T14:58:43.678Z,1.17
2022-10-28T15:01:24.601Z,1.02
2022-10-28T15:03:57.071Z,1.30
2022-10-28T15:06:40.465Z,1.23
2022-10-28T15:09:34.233Z,0.90
2022-10-28T15:12:06.823Z,1.20
2022-10-28T15:14:42.312Z,1.50
2022-10-28T15:17:24.099Z,0.98
2022-10-28T15:20:00.052Z,1.17
2022-10-28T15:22:34.337Z,1.10
2022-10-28T15:25:07.836Z,1.15
2022-10-28T15:27:40.025Z,1.40
2022-10-28T15:30:24.657Z,1.20
2022-10-28T15:33:23.617Z,1.10
2022-10-28T15:35:54.250Z,1.80
2022-10-28T15:38:29.839Z,1.40
2022-10-28T15:41:00.643Z,1.25
2022-10-28T15:43:33.081Z,1.60
2022-10-28T15:46:16.836Z,1.50
2022-10-28T15:48:47.262Z,1.52
2022-10-28T15:51:19.501Z,1.80
2022-10-28T15:53:58.089Z,1.85
2022-10-28T15:56:31.917Z,1.40
2022-10-28T15:59:05.368Z,1.55
2022-10-28T16:01:42.292Z,1.70
2022-10-28T16:04:24.951Z,1.85
2022-10-28T16:07:10.318Z,1.65
2022-10-28T16:09:48.247Z,1.75
2022-10-28T16:12:24.847Z,1.73
2022-10-28T16:15:04.408Z,1.80
2022-10-28T16:17:38.762Z,1.80
2022-10-28T16:20:19.591Z,1.73
2022-10-28T16:22:49.605Z,2.28
2022-10-28T16:25:22.815Z,1.80
2022-10-28T16:27:53.620Z,1.90
2022-10-28T16:30:23.908Z,2.20
2022-10-28T16:32:54.642Z,1.75
2022-10-28T16:35:25.672Z,2.10
2022-10-28T16:37:56.115Z,1.77
2022-10-28T16:43:22.004Z,2.03
2022-10-28T16:45:54.124Z,1.80
2022-10-28T16:48:26.620Z,1.88
2022-10-28T16:50:59.204Z,1.90
2022-10-28T16:53:29.809Z,1.67
2022-10-28T16:56:02.671Z,2.10
2022-10-28T16:58:34.979Z,2.13
2022-10-28T17:01:05.006Z,1.90
2022-10-28T17:03:35.477Z,1.75
2022-10-28T17:06:05.555Z,1.65
2022-10-28T17:09:02.471Z,1.70
2022-10-28T17:11:25.712Z,1.70
2022-10-28T17:13:55.697Z,1.70
2022-10-28T17:16:28.867Z,1.60
2022-10-28T17:18:58.846Z,1.63
2022-10-28T17:21:29.362Z,1.90
2022-10-28T17:23:59.294Z,1.90
2022-10-28T17:26:29.668Z,1.50
2022-10-28T17:28:59.925Z,1.50
2022-10-28T17:31:33.590Z,1.50
2022-10-28T17:34:03.539Z,1.73
2022-10-28T17:36:34.658Z,1.50
2022-10-28T17:39:05.626Z,1.60
2022-10-28T17:41:35.630Z,1.80
2022-10-28T17:44:05.786Z,1.58
2022-10-28T17:46:36.478Z,1.52
2022-10-28T17:49:09.653Z,1.50
2022-10-28T17:51:40.591Z,1.55
2022-10-28T17:54:10.892Z,1.85
2022-10-28T17:56:43.099Z,1.48
2022-10-28T17:59:13.120Z,1.48
2022-10-28T18:01:43.880Z,1.55
2022-10-28T18:04:13.926Z,1.70
2022-10-28T18:06:44.863Z,1.65
2022-10-28T18:09:15.217Z,1.63
2022-10-28T18:11:45.929Z,1.42
2022-10-28T18:14:16.035Z,1.73
2022-10-28T18:16:51.357Z,1.60
2022-10-28T18:19:24.570Z,1.92
2022-10-28T18:21:55.276Z,1.60
2022-10-28T18:24:26.095Z,1.55
2022-10-28T18:26:58.040Z,1.50
2022-10-28T18:29:28.089Z,1.55
2022-10-28T18:31:58.536Z,1.60
2022-10-28T18:34:29.135Z,1.88
2022-10-28T18:36:59.745Z,1.60
2022-10-28T18:39:31.954Z,1.70
2022-10-28T18:42:02.333Z,1.80
2022-10-28T18:44:33.052Z,1.48
2022-10-28T18:47:03.374Z,2.00
2022-10-28T18:49:33.871Z,1.83
2022-10-28T18:52:03.901Z,1.50
2022-10-28T18:54:35.578Z,1.88
2022-10-28T18:57:05.658Z,1.95
2022-10-28T18:59:43.281Z,1.65
2022-10-28T19:02:22.901Z,1.73
2022-10-28T19:04:53.421Z,1.90
2022-10-28T19:07:23.361Z,2.17
2022-10-28T19:09:53.870Z,1.60
2022-10-28T19:12:23.905Z,1.60
2022-10-28T19:14:54.419Z,1.95
2022-10-28T19:17:24.550Z,1.85
2022-10-28T19:19:55.652Z,1.38
2022-10-28T19:22:25.833Z,1.70
2022-10-28T19:24:56.320Z,1.73
2022-10-28T19:27:27.342Z,1.60
2022-10-28T19:30:00.893Z,1.70
2022-10-28T19:32:31.804Z,1.60
2022-10-28T19:35:02.247Z,1.83
2022-10-28T19:37:32.589Z,1.70
2022-10-28T19:40:03.044Z,1.70
2022-10-28T19:42:33.086Z,1.58
2022-10-28T19:45:04.987Z,1.70
2022-10-28T19:47:35.083Z,1.58
2022-10-28T19:50:05.654Z,1.50
2022-10-28T19:52:35.723Z,1.63
2022-10-28T19:55:08.761Z,1.80
2022-10-28T19:57:41.002Z,1.70
2022-10-28T20:00:12.147Z,1.90
2022-10-28T20:02:42.248Z,1.67
2022-10-28T20:05:12.793Z,1.48
2022-10-28T20:07:42.790Z,1.80
2022-10-28T20:10:13.205Z,1.65
2022-10-28T20:12:43.221Z,1.52
2022-10-28T20:15:13.653Z,1.67
2022-10-28T20:17:43.754Z,2.08
2022-10-28T20:20:16.175Z,1.58
2022-10-28T20:22:46.312Z,1.70
2022-10-28T20:25:22.559Z,1.85
2022-10-28T20:27:52.997Z,2.10
2022-10-28T20:30:23.781Z,1.95
2022-10-28T20:32:55.858Z,1.73
2022-10-28T20:35:26.629Z,1.38
2022-10-28T20:37:57.027Z,2.00
2022-10-28T20:40:27.765Z,1.83
2022-10-28T20:42:58.131Z,2.03
2022-10-28T20:45:29.424Z,1.73
2022-10-28T20:47:59.489Z,2.17
2022-10-28T20:50:30.205Z,1.90
2022-10-28T20:53:00.206Z,1.90
2022-10-28T20:55:30.906Z,2.15
2022-10-28T20:58:00.942Z,2.13
2022-10-28T21:00:36.724Z,1.80
2022-10-28T21:03:06.814Z,2.40
2022-10-28T21:05:37.596Z,2.20
2022-10-28T21:08:07.466Z,2.38
2022-10-28T21:10:38.588Z,2.55
2022-10-28T21:13:08.994Z,1.95
2022-10-28T21:15:41.148Z,1.60
2022-10-28T21:18:11.238Z,1.70
2022-10-28T21:20:41.954Z,1.98
2022-10-28T21:23:12.750Z,2.50
2022-10-28T21:25:43.575Z,1.60
2022-10-28T21:28:13.357Z,1.75
2022-10-28T21:30:44.100Z,2.17
2022-10-28T21:33:15.208Z,2.00
2022-10-28T21:35:46.023Z,2.58
2022-10-28T21:38:18.195Z,3.53
2022-10-28T21:40:48.627Z,2.30
2022-10-28T21:45:48.529Z,2.67
2022-10-28T21:51:15.416Z,2.53
2022-10-28T21:53:46.996Z,2.88
2022-10-28T21:56:19.660Z,2.65
2022-10-28T21:58:52.336Z,2.58
2022-10-28T22:01:25.043Z,2.70
2022-10-28T22:03:57.113Z,2.80
2022-10-28T22:06:27.191Z,3.13
2022-10-28T22:08:57.845Z,2.50
2022-10-28T22:11:28.005Z,2.45
2022-10-28T22:14:00.458Z,2.50
2022-10-28T22:16:32.839Z,2.60
2022-10-28T22:19:05.529Z,2.75
2022-10-28T22:21:41.252Z,2.92
2022-10-28T22:24:12.636Z,3.05
2022-10-28T22:26:42.629Z,2.80
2022-10-28T22:29:13.172Z,3.17
2022-10-28T22:31:44.415Z,2.75
2022-10-28T22:34:14.828Z,3.10
2022-10-28T22:36:46.223Z,3.65
2022-10-28T22:39:16.691Z,2.80
2022-10-28T22:44:15.901Z,3.20
2022-10-28T22:46:46.353Z,2.88
2022-10-28T22:51:45.796Z,2.63
2022-10-28T22:54:16.583Z,2.80
2022-10-28T22:56:46.922Z,2.80
2022-10-28T22:59:17.277Z,2.97
2022-10-28T23:01:48.228Z,2.88
2022-10-28T23:04:18.925Z,2.67
2022-10-28T23:06:51.456Z,2.72
2022-10-28T23:09:21.985Z,2.90
2022-10-28T23:14:21.091Z,2.85
2022-10-28T23:16:51.517Z,2.83
2022-10-28T23:19:23.613Z,2.47
2022-10-28T23:21:53.958Z,2.92
2022-10-28T23:24:23.906Z,2.83
2022-10-28T23:26:54.293Z,2.90
2022-10-28T23:29:24.378Z,3.30
2022-10-28T23:31:54.858Z,3.13
2022-10-28T23:34:24.909Z,3.03
2022-10-28T23:36:56.963Z,2.70
2022-10-28T23:39:27.204Z,2.75
2022-10-28T23:42:00.614Z,3.30
2022-10-28T23:46:59.758Z,3.45
2022-10-28T23:49:30.205Z,3.05
2022-10-28T23:52:02.828Z,4.00
2022-10-28T23:54:33.506Z,3.70
2022-10-28T23:57:03.452Z,3.28
2022-10-28T23:59:33.357Z,3.90
